Time,TemperatureF,DewpointF,PressureIn,WindDirection,WindDirectionDegrees,WindSpeedMPH,WindSpeedGustMPH,Humidity,HourlyPrecipIn,Conditions,Clouds,dailyrainin,SoftwareType,DateUTC
2013-04-28 12:14:00,52.8,47.0,30.19,SSW,202,1.9,1.9,81,0.00,,,0.00,Rainwise IP-100,2013-04-28 19:14:00,
2013-04-28 12:19:00,53.5,47.5,30.19,SSW,202,0.0,1.9,80,0.00,,,0.00,Rainwise IP-100,2013-04-28 19:19:00,
2013-04-28 12:24:00,54.6,49.0,30.19,WSW,247,0.0,0.0,81,0.00,,,0.00,Rainwise IP-100,2013-04-28 19:24:00,
2013-04-28 12:29:00,55.7,50.0,30.19,SE,135,0.0,2.3,80,0.00,,,0.00,Rainwise IP-100,2013-04-28 19:29:00,
2013-04-28 12:34:00,56.2,50.0,30.19,SE,135,0.0,0.0,79,0.00,,,0.00,Rainwise IP-100,2013-04-28 19:34:00,
2013-04-28 12:39:00,56.3,50.0,30.18,SE,135,0.0,0.0,78,0.00,,,0.00,Rainwise IP-100,2013-04-28 19:39:00,
2013-04-28 12:44:00,56.0,48.0,30.18,SSE,157,0.0,1.2,76,0.00,,,0.00,Rainwise IP-100,2013-04-28 19:44:00,
2013-04-28 12:49:00,55.6,48.0,30.18,SSE,157,0.0,0.0,75,0.00,,,0.00,Rainwise IP-100,2013-04-28 19:49:00,
2013-04-28 12:54:00,55.4,47.5,30.18,SSE,157,0.0,0.0,75,0.00,,,0.00,Rainwise IP-100,2013-04-28 19:54:00,
2013-04-28 12:59:00,55.5,48.0,30.18,South,180,0.0,0.0,75,0.00,,,0.00,Rainwise IP-100,2013-04-28 19:59:00,
2013-04-28 13:04:00,55.6,48.0,30.18,WSW,247,0.0,2.1,75,0.00,,,0.00,Rainwise IP-100,2013-04-28 20:04:00,
2013-04-28 13:09:00,55.6,48.0,30.18,WSW,247,0.0,2.1,75,0.00,,,0.00,Rainwise IP-100,2013-04-28 20:09:00,
2013-04-28 13:14:00,55.5,48.0,30.17,SW,225,0.0,2.1,75,0.00,,,0.00,Rainwise IP-100,2013-04-28 20:14:00,
2013-04-28 13:19:00,55.9,48.0,30.17,SW,225,0.0,1.2,76,0.00,,,0.00,Rainwise IP-100,2013-04-28 20:19:00,
2013-04-28 13:24:00,56.3,49.0,30.17,SW,225,0.0,0.0,76,0.00,,,0.00,Rainwise IP-100,2013-04-28 20:24:00,
2013-04-28 13:29:00,56.7,49.0,30.17,South,180,0.0,1.4,75,0.00,,,0.00,Rainwise IP-100,2013-04-28 20:29:00,
2013-04-28 13:34:00,57.4,50.0,30.17,SE,135,0.0,2.1,75,0.00,,,0.00,Rainwise IP-100,2013-04-28 20:34:00,
2013-04-28 13:39:00,58.5,51.0,30.17,WSW,247,3.3,4.2,75,0.00,,,0.00,Rainwise IP-100,2013-04-28 20:39:00,
2013-04-28 13:44:00,59.1,50.0,30.17,WSW,247,3.7,4.2,71,0.00,,,0.00,Rainwise IP-100,2013-04-28 20:44:00,
2013-04-28 13:49:00,59.3,48.0,30.17,WSW,247,2.3,5.1,67,0.00,,,0.00,Rainwise IP-100,2013-04-28 20:49:00,
2013-04-28 13:54:00,59.4,47.5,30.17,SSW,202,2.3,6.1,65,0.00,,,0.00,Rainwise IP-100,2013-04-28 20:54:00,
2013-04-28 13:59:00,59.5,47.0,30.17,WSW,247,2.6,6.1,62,0.00,,,0.00,Rainwise IP-100,2013-04-28 20:59:00,
2013-04-28 14:04:00,59.5,46.0,30.16,SSE,157,2.6,4.7,61,0.00,,,0.00,Rainwise IP-100,2013-04-28 21:04:00,
2013-04-28 14:09:00,59.5,46.0,30.16,SSW,202,2.3,6.1,61,0.00,,,0.00,Rainwise IP-100,2013-04-28 21:09:00,
2013-04-28 14:14:00,59.7,46.0,30.17,SSW,202,4.7,6.1,61,0.00,,,0.00,Rainwise IP-100,2013-04-28 21:14:00,
2013-04-28 14:19:00,59.9,47.0,30.17,SSW,202,1.9,5.1,61,0.00,,,0.00,Rainwise IP-100,2013-04-28 21:19:00,
2013-04-28 14:24:00,59.9,47.0,30.17,SW,225,1.4,4.2,61,0.00,,,0.00,Rainwise IP-100,2013-04-28 21:24:00,
2013-04-28 14:29:00,60.0,47.0,30.16,SSE,157,0.0,4.0,61,0.00,,,0.00,Rainwise IP-100,2013-04-28 21:29:00,
2013-04-28 14:34:00,59.6,46.0,30.16,SSW,202,1.9,4.2,61,0.00,,,0.00,Rainwise IP-100,2013-04-28 21:34:00,
2013-04-28 14:39:00,58.8,45.0,30.16,WSW,247,1.6,4.0,59,0.00,,,0.00,Rainwise IP-100,2013-04-28 21:39:00,
2013-04-28 14:44:00,58.7,45.0,30.16,WSW,247,2.6,3.7,59,0.00,,,0.00,Rainwise IP-100,2013-04-28 21:44:00,
2013-04-28 14:49:00,58.5,45.0,30.16,WSW,247,2.3,4.9,59,0.00,,,0.00,Rainwise IP-100,2013-04-28 21:49:00,
2013-04-28 14:54:00,57.7,43.0,30.16,SSE,157,2.6,6.8,59,0.00,,,0.00,Rainwise IP-100,2013-04-28 21:54:00,
2013-04-28 14:59:00,57.0,43.0,30.15,SW,225,1.6,6.1,60,0.00,,,0.00,Rainwise IP-100,2013-04-28 21:59:00,
2013-04-28 15:04:00,56.6,43.0,30.16,SSE,157,2.6,5.8,61,0.00,,,0.00,Rainwise IP-100,2013-04-28 22:04:00,
2013-04-28 15:09:00,56.7,44.0,30.15,South,180,0.0,5.4,62,0.00,,,0.00,Rainwise IP-100,2013-04-28 22:09:00,
2013-04-28 15:14:00,57.4,44.0,30.15,WSW,247,2.1,4.4,61,0.00,,,0.00,Rainwise IP-100,2013-04-28 22:14:00,
2013-04-28 15:19:00,57.9,44.0,30.14,WSW,247,2.1,5.8,59,0.00,,,0.00,Rainwise IP-100,2013-04-28 22:19:00,
2013-04-28 15:24:00,57.6,43.0,30.14,SSW,202,4.0,4.7,58,0.00,,,0.00,Rainwise IP-100,2013-04-28 22:24:00,
2013-04-28 15:29:00,57.3,43.0,30.14,SW,225,1.2,5.1,58,0.00,,,0.00,Rainwise IP-100,2013-04-28 22:29:00,
2013-04-28 15:34:00,57.0,42.0,30.14,SW,225,0.0,5.1,58,0.00,,,0.00,Rainwise IP-100,2013-04-28 22:34:00,
2013-04-28 15:39:00,56.9,43.0,30.14,SW,225,1.2,7.7,59,0.00,,,0.00,Rainwise IP-100,2013-04-28 22:39:00,
2013-04-28 15:44:00,56.9,43.0,30.13,SSW,202,0.0,4.7,59,0.00,,,0.00,Rainwise IP-100,2013-04-28 22:44:00,
2013-04-28 15:49:00,57.1,43.0,30.13,SW,225,2.3,4.0,59,0.00,,,0.00,Rainwise IP-100,2013-04-28 22:49:00,
2013-04-28 15:54:00,57.2,42.0,30.13,WSW,247,3.0,9.1,58,0.00,,,0.00,Rainwise IP-100,2013-04-28 22:54:00,
2013-04-28 15:59:00,57.1,42.0,30.13,SSW,202,3.3,7.5,57,0.00,,,0.00,Rainwise IP-100,2013-04-28 22:59:00,
2013-04-28 16:04:00,56.9,42.0,30.13,WSW,247,2.6,6.5,57,0.00,,,0.00,Rainwise IP-100,2013-04-28 23:04:00,
2013-04-28 16:09:00,56.6,42.0,30.12,SSW,202,1.6,5.1,58,0.00,,,0.00,Rainwise IP-100,2013-04-28 23:09:00,
2013-04-28 16:14:00,56.5,42.0,30.12,SW,225,2.6,5.8,59,0.00,,,0.00,Rainwise IP-100,2013-04-28 23:14:00,
2013-04-28 16:19:00,56.4,42.0,30.13,WSW,247,4.2,4.9,59,0.00,,,0.00,Rainwise IP-100,2013-04-28 23:19:00,
2013-04-28 16:24:00,56.1,42.0,30.12,SSW,202,2.6,6.3,59,0.00,,,0.00,Rainwise IP-100,2013-04-28 23:24:00,
2013-04-28 16:29:00,55.9,42.0,30.12,South,180,0.0,4.4,60,0.00,,,0.00,Rainwise IP-100,2013-04-28 23:29:00,
2013-04-28 16:34:00,55.8,42.0,30.12,South,180,0.0,4.4,60,0.00,,,0.00,Rainwise IP-100,2013-04-28 23:34:00,
2013-04-28 16:39:00,55.7,42.0,30.12,SW,225,1.9,4.2,60,0.00,,,0.00,Rainwise IP-100,2013-04-28 23:39:00,
2013-04-28 16:44:00,55.5,42.0,30.11,SSW,202,1.4,3.7,61,0.00,,,0.00,Rainwise IP-100,2013-04-28 23:44:00,
2013-04-28 16:49:00,55.4,42.0,30.11,South,180,1.6,5.8,61,0.00,,,0.00,Rainwise IP-100,2013-04-28 23:49:00,
2013-04-28 16:54:00,55.4,42.0,30.11,SW,225,2.3,4.4,61,0.00,,,0.00,Rainwise IP-100,2013-04-28 23:54:00,
2013-04-28 16:59:00,55.3,42.0,30.11,South,180,2.1,4.4,61,0.00,,,0.00,Rainwise IP-100,2013-04-28 23:59:00,
2013-04-28 17:04:00,55.1,42.0,30.11,WSW,247,2.1,4.9,62,0.00,,,0.00,Rainwise IP-100,2013-04-29 00:04:00,
2013-04-28 17:09:00,54.9,42.0,30.10,ESE,112,0.0,4.0,62,0.00,,,0.00,Rainwise IP-100,2013-04-29 00:09:00,
2013-04-28 17:14:00,55.0,42.0,30.10,SW,225,1.2,3.0,62,0.00,,,0.00,Rainwise IP-100,2013-04-29 00:14:00,
2013-04-28 17:19:00,55.0,42.0,30.10,SW,225,1.6,4.7,62,0.00,,,0.00,Rainwise IP-100,2013-04-29 00:19:00,
2013-04-28 17:24:00,54.9,42.0,30.10,SSW,202,2.6,3.3,61,0.00,,,0.00,Rainwise IP-100,2013-04-29 00:24:00,
2013-04-28 17:29:00,54.9,42.0,30.10,South,180,0.0,4.2,61,0.00,,,0.00,Rainwise IP-100,2013-04-29 00:29:00,
2013-04-28 17:34:00,55.0,41.0,30.10,SSW,202,1.9,6.3,60,0.00,,,0.00,Rainwise IP-100,2013-04-29 00:34:00,
2013-04-28 17:39:00,54.9,41.0,30.10,SSW,202,5.6,5.8,60,0.00,,,0.00,Rainwise IP-100,2013-04-29 00:39:00,
2013-04-28 17:44:00,54.7,41.0,30.10,WSW,247,2.1,5.6,60,0.00,,,0.00,Rainwise IP-100,2013-04-29 00:44:00,
2013-04-28 17:49:00,54.6,41.0,30.10,WSW,247,3.7,6.8,61,0.00,,,0.00,Rainwise IP-100,2013-04-29 00:49:00,
2013-04-28 17:54:00,54.5,41.0,30.10,WSW,247,2.3,6.5,61,0.00,,,0.00,Rainwise IP-100,2013-04-29 00:54:00,
2013-04-28 17:59:00,54.5,41.0,30.10,SW,225,2.3,4.2,60,0.00,,,0.00,Rainwise IP-100,2013-04-29 00:59:00,
2013-04-28 18:04:00,54.5,41.0,30.09,WSW,247,0.0,4.4,60,0.00,,,0.00,Rainwise IP-100,2013-04-29 01:04:00,
2013-04-28 18:09:00,54.5,41.0,30.09,SW,225,5.1,7.2,60,0.00,,,0.00,Rainwise IP-100,2013-04-29 01:09:00,
2013-04-28 18:14:00,54.5,41.0,30.09,SSW,202,1.4,5.6,61,0.00,,,0.00,Rainwise IP-100,2013-04-29 01:14:00,
2013-04-28 18:19:00,54.4,41.0,30.08,SSW,202,2.6,5.6,61,0.00,,,0.00,Rainwise IP-100,2013-04-29 01:19:00,
2013-04-28 18:24:00,54.4,41.0,30.08,South,180,2.3,4.7,61,0.00,,,0.00,Rainwise IP-100,2013-04-29 01:24:00,
2013-04-28 18:29:00,54.5,41.0,30.08,SSW,202,1.4,5.4,61,0.00,,,0.00,Rainwise IP-100,2013-04-29 01:29:00,
2013-04-28 18:34:00,54.4,41.0,30.08,SSW,202,1.4,5.6,61,0.00,,,0.00,Rainwise IP-100,2013-04-29 01:34:00,
2013-04-28 18:39:00,54.4,41.0,30.08,South,180,1.6,3.3,61,0.00,,,0.00,Rainwise IP-100,2013-04-29 01:39:00,
2013-04-28 18:44:00,54.4,41.0,30.07,WSW,247,2.3,6.3,60,0.00,,,0.00,Rainwise IP-100,2013-04-29 01:44:00,
2013-04-28 18:49:00,54.5,40.0,30.07,WSW,247,2.3,4.9,59,0.00,,,0.00,Rainwise IP-100,2013-04-29 01:49:00,
2013-04-28 18:54:00,54.5,40.0,30.07,SSW,202,1.6,4.2,58,0.00,,,0.00,Rainwise IP-100,2013-04-29 01:54:00,
2013-04-28 18:59:00,54.4,40.0,30.07,WSW,247,3.3,5.8,58,0.00,,,0.00,Rainwise IP-100,2013-04-29 01:59:00,
2013-04-28 19:04:00,54.2,40.0,30.07,WSW,247,4.7,5.1,59,0.00,,,0.00,Rainwise IP-100,2013-04-29 02:04:00,
2013-04-28 19:09:00,53.9,40.0,30.07,SSW,202,5.1,5.4,60,0.00,,,0.00,Rainwise IP-100,2013-04-29 02:09:00,
2013-04-28 19:14:00,53.7,40.0,30.07,South,180,1.6,7.5,62,0.00,,,0.00,Rainwise IP-100,2013-04-29 02:14:00,
2013-04-28 19:19:00,53.5,40.0,30.07,SW,225,2.3,6.5,62,0.00,,,0.00,Rainwise IP-100,2013-04-29 02:19:00,
2013-04-28 19:24:00,53.3,41.0,30.06,WSW,247,0.0,3.7,63,0.00,,,0.00,Rainwise IP-100,2013-04-29 02:24:00,
2013-04-28 19:29:00,53.0,41.0,30.06,South,180,0.0,4.4,64,0.00,,,0.00,Rainwise IP-100,2013-04-29 02:29:00,
2013-04-28 19:34:00,52.8,41.0,30.06,SE,135,0.0,7.2,66,0.00,,,0.00,Rainwise IP-100,2013-04-29 02:34:00,
2013-04-28 19:39:00,52.6,42.0,30.05,SSW,202,2.1,6.1,67,0.00,,,0.00,Rainwise IP-100,2013-04-29 02:39:00,
2013-04-28 19:44:00,52.4,42.0,30.05,SSW,202,2.1,6.8,68,0.00,,,0.00,Rainwise IP-100,2013-04-29 02:44:00,
2013-04-28 19:49:00,52.3,42.0,30.05,SW,225,2.3,6.1,69,0.00,,,0.00,Rainwise IP-100,2013-04-29 02:49:00,
2013-04-28 19:54:00,52.2,42.0,30.05,WSW,247,4.7,9.1,70,0.00,,,0.00,Rainwise IP-100,2013-04-29 02:54:00,
2013-04-28 19:59:00,52.0,42.0,30.04,South,180,3.0,5.8,70,0.00,,,0.00,Rainwise IP-100,2013-04-29 02:59:00,
2013-04-28 20:04:00,51.9,43.0,30.04,SSW,202,1.6,8.6,71,0.00,,,0.00,Rainwise IP-100,2013-04-29 03:04:00,
2013-04-28 20:09:00,51.8,43.0,30.04,South,180,2.6,7.7,71,0.00,,,0.00,Rainwise IP-100,2013-04-29 03:09:00,
2013-04-28 20:14:00,51.8,43.0,30.04,SSW,202,2.1,5.8,71,0.00,,,0.00,Rainwise IP-100,2013-04-29 03:14:00,
2013-04-28 20:19:00,51.8,43.0,30.04,SW,225,3.0,5.6,71,0.00,,,0.00,Rainwise IP-100,2013-04-29 03:19:00,
2013-04-28 20:24:00,51.7,43.0,30.04,SW,225,1.9,4.4,71,0.00,,,0.00,Rainwise IP-100,2013-04-29 03:24:00,
2013-04-28 20:29:00,51.5,43.0,30.04,SW,225,2.3,5.4,72,0.00,,,0.00,Rainwise IP-100,2013-04-29 03:29:00,
2013-04-28 20:34:00,51.3,43.0,30.04,South,180,0.0,5.4,73,0.00,,,0.00,Rainwise IP-100,2013-04-29 03:34:00,
2013-04-28 20:39:00,51.1,43.0,30.04,South,180,2.6,6.1,74,0.00,,,0.00,Rainwise IP-100,2013-04-29 03:39:00,
2013-04-28 20:44:00,50.8,44.0,30.04,South,180,2.6,4.9,76,0.00,,,0.00,Rainwise IP-100,2013-04-29 03:44:00,
2013-04-28 20:49:00,50.5,44.0,30.05,SSE,157,0.0,4.2,78,0.00,,,0.00,Rainwise IP-100,2013-04-29 03:49:00,
2013-04-28 20:54:00,50.2,43.0,30.04,SSW,202,2.1,4.2,79,0.00,,,0.00,Rainwise IP-100,2013-04-29 03:54:00,
2013-04-28 20:59:00,50.0,44.0,30.05,SSW,202,1.4,4.7,80,0.00,,,0.00,Rainwise IP-100,2013-04-29 03:59:00,
2013-04-28 21:01:00,50.0,44.0,30.04,SW,225,3.5,4.7,81,0.00,,,0.00,Rainwise IP-100,2013-04-29 04:01:00,
2013-04-28 21:06:00,49.8,45.0,30.04,SSW,202,1.4,5.4,82,0.00,,,0.00,Rainwise IP-100,2013-04-29 04:06:00,
2013-04-28 21:08:00,49.8,45.0,30.04,SSW,202,1.6,5.4,82,0.00,,,0.00,Rainwise IP-100,2013-04-29 04:08:00,
2013-04-28 21:09:00,49.8,45.0,30.04,SW,225,5.6,5.6,82,0.00,,,0.00,Rainwise IP-100,2013-04-29 04:09:00,
2013-04-28 21:14:00,49.7,45.0,30.04,South,180,2.3,5.6,82,0.00,,,0.00,Rainwise IP-100,2013-04-29 04:14:00,
2013-04-28 21:19:00,49.8,44.0,30.04,SSW,202,1.9,5.6,81,0.00,,,0.00,Rainwise IP-100,2013-04-29 04:19:00,
2013-04-28 21:24:00,49.8,44.0,30.03,SSW,202,2.3,4.0,81,0.00,,,0.00,Rainwise IP-100,2013-04-29 04:24:00,
2013-04-28 21:29:00,49.7,44.0,30.03,SSW,202,3.0,6.1,81,0.00,,,0.00,Rainwise IP-100,2013-04-29 04:29:00,
2013-04-28 21:34:00,49.7,44.0,30.02,SW,225,1.6,7.0,81,0.00,,,0.00,Rainwise IP-100,2013-04-29 04:34:00,
2013-04-28 21:39:00,49.6,44.0,30.02,SSW,202,2.3,5.6,81,0.00,,,0.00,Rainwise IP-100,2013-04-29 04:39:00,
2013-04-28 21:44:00,49.7,44.0,30.02,SW,225,2.1,6.8,81,0.00,,,0.00,Rainwise IP-100,2013-04-29 04:44:00,
2013-04-28 21:49:00,49.7,44.0,30.02,WSW,247,1.6,6.5,81,0.00,,,0.00,Rainwise IP-100,2013-04-29 04:49:00,
2013-04-28 21:54:00,49.6,45.0,30.01,SSW,202,2.3,6.3,82,0.00,,,0.00,Rainwise IP-100,2013-04-29 04:54:00,
2013-04-28 21:59:00,49.5,45.0,30.00,SSW,202,0.0,4.7,83,0.00,,,0.00,Rainwise IP-100,2013-04-29 04:59:00,
2013-04-28 22:04:00,49.5,45.0,30.00,WSW,247,2.1,4.2,83,0.00,,,0.00,Rainwise IP-100,2013-04-29 05:04:00,
2013-04-28 22:09:00,49.5,45.0,30.00,SSW,202,2.3,5.4,83,0.00,,,0.00,Rainwise IP-100,2013-04-29 05:09:00,
2013-04-28 22:14:00,49.4,44.0,30.00,South,180,1.2,5.6,84,0.00,,,0.00,Rainwise IP-100,2013-04-29 05:14:00,
2013-04-28 22:19:00,49.3,44.0,30.00,WSW,247,1.6,6.5,84,0.00,,,0.00,Rainwise IP-100,2013-04-29 05:19:00,
2013-04-28 22:24:00,49.3,44.0,29.99,SSW,202,0.0,3.7,84,0.00,,,0.00,Rainwise IP-100,2013-04-29 05:24:00,
2013-04-28 22:29:00,49.2,45.0,29.98,SW,225,3.3,5.1,85,0.00,,,0.00,Rainwise IP-100,2013-04-29 05:29:00,
2013-04-28 22:34:00,49.1,45.0,29.98,WSW,247,0.0,5.4,85,0.00,,,0.00,Rainwise IP-100,2013-04-29 05:34:00,
2013-04-28 22:39:00,49.1,45.0,29.97,South,180,1.4,4.7,85,0.00,,,0.00,Rainwise IP-100,2013-04-29 05:39:00,
2013-04-28 22:44:00,49.0,45.0,29.97,SSW,202,2.1,4.0,86,0.00,,,0.00,Rainwise IP-100,2013-04-29 05:44:00,
2013-04-28 22:49:00,49.0,45.0,29.97,South,180,2.6,8.2,86,0.00,,,0.00,Rainwise IP-100,2013-04-29 05:49:00,
2013-04-28 22:54:00,49.0,45.0,29.98,SW,225,1.4,4.4,86,0.00,,,0.00,Rainwise IP-100,2013-04-29 05:54:00,
2013-04-28 22:59:00,49.1,45.0,29.97,SW,225,3.3,7.9,86,0.00,,,0.00,Rainwise IP-100,2013-04-29 05:59:00,
2013-04-28 23:04:00,49.1,45.0,29.97,WSW,247,2.1,4.2,86,0.00,,,0.00,Rainwise IP-100,2013-04-29 06:04:00,
2013-04-28 23:09:00,49.1,45.0,29.97,SSW,202,1.4,4.2,86,0.00,,,0.00,Rainwise IP-100,2013-04-29 06:09:00,
2013-04-28 23:14:00,49.1,45.0,29.97,SW,225,0.0,4.2,87,0.00,,,0.00,Rainwise IP-100,2013-04-29 06:14:00,
2013-04-28 23:19:00,49.1,45.0,29.97,SSW,202,1.9,3.5,87,0.00,,,0.00,Rainwise IP-100,2013-04-29 06:19:00,
2013-04-28 23:24:00,49.1,45.0,29.97,WSW,247,0.0,4.9,87,0.00,,,0.00,Rainwise IP-100,2013-04-29 06:24:00,
2013-04-28 23:29:00,49.2,45.0,29.96,WSW,247,2.8,4.7,86,0.00,,,0.00,Rainwise IP-100,2013-04-29 06:29:00,
2013-04-28 23:34:00,49.1,45.0,29.96,WSW,247,0.0,4.0,87,0.00,,,0.00,Rainwise IP-100,2013-04-29 06:34:00,
2013-04-28 23:39:00,49.0,46.0,29.96,SW,225,1.9,5.1,88,0.00,,,0.00,Rainwise IP-100,2013-04-29 06:39:00,
2013-04-28 23:44:00,48.8,46.0,29.96,SSW,202,2.6,4.4,89,0.00,,,0.00,Rainwise IP-100,2013-04-29 06:44:00,
2013-04-28 23:49:00,48.7,46.0,29.95,WSW,247,2.6,4.2,89,0.00,,,0.00,Rainwise IP-100,2013-04-29 06:49:00,
2013-04-28 23:54:00,48.6,47.0,29.95,South,180,0.0,5.6,90,0.00,,,0.00,Rainwise IP-100,2013-04-29 06:54:00,
2013-04-28 23:59:00,48.5,47.0,29.94,SSE,157,0.0,5.8,90,0.00,,,0.00,Rainwise IP-100,2013-04-29 06:59:00,